Realitos, Texas
Current Conditions -  °F | °C
As of 9:35 AM on Thursday 30 Oct 2014 (Local Time) from KHBV Reporting Station
Overcast Overcast  
Wind Chill: 66°   Ceiling: 100
Heat Index: 66°   Visibility: 0.75mi
Dew Point: 65°   Wind: 3mph
Humidity: 97%   Direction: 40°NE
Pressure: 30.13"   Gusts: NA
Location:  27.45°N, 98.53°W
Report Text: KHBV 301435Z AUTO 04003KT 3/4SM OVC001 19/19 A3013 RMK AO2 T01900185 PWINO
Loading
Personal Weather Stations






























Interactive Weather Map
Tropical Storm Tracking
New forecast layout! Learn more

10-Day Weather Forecast

Advertisements
Track Severe Weather on mobile